createdAt,value
2022-11-14T00:00:49.563Z,84.98
2022-11-14T00:02:51.123Z,84.79
2022-11-14T00:04:52.616Z,85.34
2022-11-14T00:06:54.156Z,85.11
2022-11-14T00:08:55.659Z,85.28
2022-11-14T00:10:57.106Z,84.93
2022-11-14T00:12:58.564Z,85.20
2022-11-14T00:15:00.128Z,86.38
2022-11-14T00:17:01.947Z,85.68
2022-11-14T00:19:03.672Z,86.19
2022-11-14T00:21:05.157Z,86.54
2022-11-14T00:23:06.569Z,87.36
2022-11-14T00:25:08.490Z,87.31
2022-11-14T00:27:09.920Z,86.15
2022-11-14T00:29:15.752Z,86.17
2022-11-14T00:31:17.354Z,86.46
2022-11-14T00:33:20.875Z,86.39
2022-11-14T00:35:22.542Z,86.55
2022-11-14T00:37:23.992Z,86.83
2022-11-14T00:39:25.493Z,87.83
2022-11-14T00:41:26.909Z,87.83
2022-11-14T00:43:28.403Z,88.35
2022-11-14T00:45:29.827Z,87.55
2022-11-14T00:47:31.276Z,87.61
2022-11-14T00:49:32.775Z,87.39
2022-11-14T00:51:34.192Z,87.36
2022-11-14T00:53:36.114Z,88.13
2022-11-14T00:55:37.796Z,89.31
2022-11-14T00:57:39.245Z,89.52
2022-11-14T00:59:40.686Z,89.80
2022-11-14T01:01:42.165Z,90.15
2022-11-14T01:03:43.597Z,89.94
2022-11-14T01:05:50.706Z,89.63
2022-11-14T01:07:52.165Z,89.78
2022-11-14T01:09:53.612Z,89.30
2022-11-14T01:11:55.130Z,89.40
2022-11-14T01:13:56.567Z,88.34
2022-11-14T01:16:00.828Z,88.93
2022-11-14T01:18:02.271Z,88.26
2022-11-14T01:20:04.564Z,88.07
2022-11-14T01:22:06.734Z,88.41
2022-11-14T01:24:08.402Z,88.23
2022-11-14T01:26:13.283Z,88.20
2022-11-14T01:28:18.320Z,88.58
2022-11-14T01:30:19.743Z,88.30
2022-11-14T01:32:21.201Z,88.78
2022-11-14T01:34:23.497Z,88.93
2022-11-14T01:36:25.058Z,88.74
2022-11-14T01:38:26.734Z,88.01
2022-11-14T01:40:28.954Z,87.93
2022-11-14T01:42:30.451Z,88.16
2022-11-14T01:44:55.012Z,87.33
2022-11-14T01:46:57.068Z,87.24
2022-11-14T01:49:01.186Z,87.37
2022-11-14T01:51:25.888Z,87.57
2022-11-14T01:53:28.175Z,87.01
2022-11-14T01:55:29.619Z,87.31
2022-11-14T01:57:36.313Z,87.38
2022-11-14T01:59:42.500Z,88.03
2022-11-14T02:01:50.196Z,87.79
2022-11-14T02:03:54.543Z,88.56
2022-11-14T02:05:57.015Z,88.80
2022-11-14T02:07:58.596Z,88.83
2022-11-14T02:10:03.529Z,88.68
2022-11-14T02:12:08.577Z,88.24
2022-11-14T02:14:11.180Z,87.96
2022-11-14T02:16:12.683Z,88.22
2022-11-14T02:18:14.143Z,88.27
2022-11-14T02:20:25.079Z,87.90
2022-11-14T02:22:26.577Z,87.97
2022-11-14T02:24:27.996Z,87.74
2022-11-14T02:26:33.031Z,88.27
2022-11-14T02:28:37.360Z,88.45
2022-11-14T02:30:38.825Z,88.09
2022-11-14T02:33:08.872Z,88.14
2022-11-14T02:35:02.029Z,87.22
2022-11-14T02:37:03.644Z,87.32
2022-11-14T02:39:05.094Z,87.78
2022-11-14T02:41:06.537Z,87.27
2022-11-14T02:43:08.078Z,87.87
2022-11-14T02:45:10.645Z,87.45
2022-11-14T02:47:12.069Z,88.01
2022-11-14T02:49:13.540Z,87.99
2022-11-14T02:51:14.953Z,87.79
2022-11-14T02:53:16.416Z,87.90
2022-11-14T02:55:17.863Z,87.59
2022-11-14T02:57:19.288Z,88.10
2022-11-14T02:59:20.767Z,87.83
2022-11-14T03:01:22.282Z,88.76
2022-11-14T03:03:23.815Z,88.18
2022-11-14T03:05:25.881Z,87.80
2022-11-14T03:07:27.511Z,87.44
2022-11-14T03:09:28.952Z,87.87
2022-11-14T03:11:31.199Z,88.21
2022-11-14T03:13:32.761Z,88.63
2022-11-14T03:15:37.529Z,88.18
2022-11-14T03:17:39.029Z,88.44
2022-11-14T03:19:40.472Z,88.15
2022-11-14T03:21:41.896Z,88.04
2022-11-14T03:23:44.196Z,88.10
2022-11-14T03:25:45.603Z,88.26
2022-11-14T03:27:47.033Z,87.95
2022-11-14T03:29:49.305Z,87.91
2022-11-14T03:31:50.735Z,87.88
2022-11-14T03:33:52.161Z,87.96
2022-11-14T03:35:53.950Z,88.42
2022-11-14T03:37:56.822Z,87.89
2022-11-14T03:39:58.385Z,88.31
2022-11-14T03:41:59.840Z,88.68
2022-11-14T03:44:01.335Z,87.66
2022-11-14T03:46:03.474Z,88.05
2022-11-14T03:48:06.508Z,87.52
2022-11-14T03:50:08.224Z,87.29
2022-11-14T03:52:09.660Z,87.75
2022-11-14T03:54:11.091Z,87.49
2022-11-14T03:56:12.529Z,87.93
2022-11-14T03:58:13.991Z,88.09
2022-11-14T04:00:16.173Z,88.29
2022-11-14T04:02:17.641Z,88.65
2022-11-14T04:04:19.122Z,88.31
2022-11-14T04:06:20.704Z,87.67
2022-11-14T04:08:22.196Z,88.08
2022-11-14T04:10:23.716Z,87.77
2022-11-14T04:12:25.365Z,87.60
2022-11-14T04:14:26.807Z,88.05
2022-11-14T04:16:28.251Z,88.25
2022-11-14T04:18:30.168Z,88.51
2022-11-14T04:20:31.973Z,87.89
2022-11-14T04:22:33.419Z,88.02
2022-11-14T04:24:34.880Z,88.51
2022-11-14T04:26:36.328Z,88.42
2022-11-14T04:28:37.758Z,89.01
2022-11-14T04:30:39.815Z,88.99
2022-11-14T04:32:41.252Z,89.10
2022-11-14T04:34:42.667Z,88.55
2022-11-14T04:36:44.417Z,88.79
2022-11-14T04:38:45.856Z,88.95
2022-11-14T04:40:51.903Z,88.93
2022-11-14T04:42:53.382Z,88.90
2022-11-14T04:44:54.902Z,88.66
2022-11-14T04:46:57.159Z,88.47
2022-11-14T04:48:58.600Z,88.48
2022-11-14T04:51:00.038Z,88.39
2022-11-14T04:53:01.452Z,88.65
2022-11-14T04:55:03.363Z,89.02
2022-11-14T04:57:04.810Z,88.80
2022-11-14T04:59:06.270Z,88.26
2022-11-14T05:01:10.139Z,87.90
2022-11-14T05:03:11.642Z,87.69
2022-11-14T05:05:13.266Z,88.37
2022-11-14T05:07:15.478Z,88.60
2022-11-14T05:09:17.031Z,88.60
2022-11-14T05:11:21.482Z,88.34
2022-11-14T05:13:24.649Z,88.52
2022-11-14T05:15:26.335Z,88.99
2022-11-14T05:17:28.341Z,88.60
2022-11-14T05:19:29.742Z,88.88
2022-11-14T05:21:31.217Z,88.76
2022-11-14T05:23:32.974Z,88.87
2022-11-14T05:25:34.409Z,89.40
2022-11-14T05:27:35.860Z,89.59
2022-11-14T05:29:37.320Z,89.49
2022-11-14T05:31:38.749Z,89.11
2022-11-14T05:33:40.222Z,89.10
2022-11-14T05:35:41.639Z,89.07
2022-11-14T05:37:43.078Z,89.81
2022-11-14T05:39:44.499Z,89.51
2022-11-14T05:41:45.959Z,89.59
2022-11-14T05:43:47.621Z,88.90
2022-11-14T05:45:49.099Z,88.30
2022-11-14T05:47:53.979Z,88.42
2022-11-14T05:49:55.393Z,88.54
2022-11-14T05:51:56.813Z,88.14
2022-11-14T05:53:58.280Z,88.08
2022-11-14T05:56:04.802Z,87.92
2022-11-14T05:58:06.308Z,87.78
2022-11-14T06:00:09.280Z,87.65
2022-11-14T06:02:10.810Z,87.97
2022-11-14T06:04:15.410Z,87.38
2022-11-14T06:06:22.421Z,87.71
2022-11-14T06:08:23.846Z,88.12
2022-11-14T06:10:25.453Z,88.37
2022-11-14T06:12:26.924Z,88.16
2022-11-14T06:14:28.340Z,88.43
2022-11-14T06:16:29.946Z,88.75
2022-11-14T06:18:33.772Z,88.73
2022-11-14T06:20:36.250Z,88.69
2022-11-14T06:22:39.819Z,88.41
2022-11-14T06:24:41.245Z,88.09
2022-11-14T06:26:42.853Z,87.66
2022-11-14T06:28:44.308Z,87.79
2022-11-14T06:30:45.716Z,88.14
2022-11-14T06:32:47.205Z,87.86
2022-11-14T06:34:48.986Z,87.99
2022-11-14T06:36:50.464Z,87.90
2022-11-14T06:38:51.928Z,88.36
2022-11-14T06:40:53.488Z,88.71
2022-11-14T06:42:57.773Z,88.86
2022-11-14T06:44:59.233Z,89.62
2022-11-14T06:47:00.757Z,88.70
2022-11-14T06:49:02.227Z,88.52
2022-11-14T06:51:04.999Z,88.50
2022-11-14T06:53:06.448Z,88.57
2022-11-14T06:55:08.139Z,88.24
2022-11-14T06:57:09.575Z,88.53
2022-11-14T06:59:11.576Z,88.37
2022-11-14T07:01:21.907Z,88.35
2022-11-14T07:03:23.455Z,88.21
2022-11-14T07:05:24.893Z,88.23
2022-11-14T07:07:28.632Z,88.36
2022-11-14T07:09:30.326Z,87.99
2022-11-14T07:11:32.108Z,88.65
2022-11-14T07:13:34.627Z,88.05
2022-11-14T07:15:36.036Z,88.82
2022-11-14T07:17:37.462Z,88.95
2022-11-14T07:19:38.966Z,88.54
2022-11-14T07:21:40.504Z,89.42
2022-11-14T07:23:42.335Z,89.13
2022-11-14T07:25:43.854Z,89.03
2022-11-14T07:27:45.284Z,89.14
2022-11-14T07:29:46.699Z,89.46
2022-11-14T07:31:48.149Z,88.97
2022-11-14T07:33:49.580Z,89.43
2022-11-14T07:35:51.958Z,88.79
2022-11-14T07:37:53.390Z,88.39
2022-11-14T07:39:54.835Z,88.86
2022-11-14T07:41:56.295Z,89.12
2022-11-14T07:43:57.854Z,88.64
2022-11-14T07:46:03.228Z,88.31
2022-11-14T07:48:04.901Z,89.39
2022-11-14T07:50:06.810Z,89.54
2022-11-14T07:52:08.323Z,89.52
2022-11-14T07:54:12.011Z,89.47
2022-11-14T07:56:13.816Z,88.84
2022-11-14T07:58:15.299Z,89.36
2022-11-14T08:00:17.057Z,88.58
2022-11-14T08:02:18.523Z,88.72
2022-11-14T08:04:19.923Z,88.28
2022-11-14T08:06:21.706Z,87.41
2022-11-14T08:08:23.128Z,87.29
2022-11-14T08:10:25.536Z,87.13
2022-11-14T08:12:29.043Z,87.58
2022-11-14T08:14:30.519Z,87.84
2022-11-14T08:16:31.984Z,88.05
2022-11-14T08:18:33.431Z,87.70
2022-11-14T08:20:35.057Z,88.14
2022-11-14T08:22:36.502Z,87.50
2022-11-14T08:24:37.932Z,88.26
2022-11-14T08:26:39.573Z,87.78
2022-11-14T08:28:41.020Z,88.02
2022-11-14T08:30:42.540Z,86.93
2022-11-14T08:32:44.025Z,87.28
2022-11-14T08:34:45.681Z,87.04
2022-11-14T08:36:47.119Z,86.49
2022-11-14T08:38:51.397Z,86.62
2022-11-14T08:40:53.141Z,86.66
2022-11-14T08:43:03.716Z,86.56
2022-11-14T08:45:05.790Z,86.43
2022-11-14T08:47:07.287Z,87.26
2022-11-14T08:49:08.711Z,87.51
2022-11-14T08:51:10.199Z,87.56
2022-11-14T08:53:11.654Z,87.81
2022-11-14T08:55:13.217Z,87.14
2022-11-14T08:57:15.399Z,87.31
2022-11-14T08:59:16.920Z,87.94
2022-11-14T09:01:18.349Z,88.02
2022-11-14T09:03:19.982Z,88.67
2022-11-14T09:05:21.848Z,88.24
2022-11-14T09:07:23.347Z,88.05
2022-11-14T09:09:24.864Z,88.20
2022-11-14T09:11:26.329Z,88.27
2022-11-14T09:13:28.084Z,88.25
2022-11-14T09:15:30.397Z,88.51
2022-11-14T09:17:31.876Z,88.70
2022-11-14T09:19:33.291Z,88.86
2022-11-14T09:21:34.743Z,88.62
2022-11-14T09:23:36.869Z,88.67
2022-11-14T09:25:38.586Z,88.55
2022-11-14T09:27:40.025Z,88.37
2022-11-14T09:29:41.473Z,88.69
2022-11-14T09:31:42.899Z,88.42
2022-11-14T09:33:44.326Z,88.29
2022-11-14T09:35:45.790Z,88.58
2022-11-14T09:37:47.234Z,88.63
2022-11-14T09:39:48.669Z,89.07
2022-11-14T09:42:16.820Z,87.98
2022-11-14T09:44:20.683Z,87.39
2022-11-14T09:46:26.071Z,87.61
2022-11-14T09:48:31.228Z,88.29
2022-11-14T09:50:37.024Z,88.13
2022-11-14T09:52:46.259Z,87.78
2022-11-14T09:54:56.449Z,88.29
2022-11-14T09:56:57.895Z,88.78
2022-11-14T09:58:59.384Z,88.39
2022-11-14T10:01:10.679Z,88.50
2022-11-14T10:03:35.015Z,88.13
2022-11-14T10:05:45.896Z,87.34
2022-11-14T10:07:53.452Z,87.81
2022-11-14T10:10:26.054Z,87.85
2022-11-14T10:12:52.088Z,88.09
2022-11-14T10:15:03.480Z,87.55
2022-11-14T10:17:22.510Z,87.63
2022-11-14T10:19:33.036Z,87.28
2022-11-14T10:21:37.529Z,86.92
2022-11-14T10:24:00.762Z,86.13
2022-11-14T10:26:25.743Z,86.08
2022-11-14T10:29:24.443Z,86.00
2022-11-14T10:31:49.147Z,86.32
2022-11-14T10:34:01.690Z,86.20
2022-11-14T10:36:12.143Z,86.57
2022-11-14T10:38:21.412Z,86.49
2022-11-14T10:40:34.254Z,86.80
2022-11-14T10:42:38.830Z,87.16
2022-11-14T10:44:50.994Z,87.12
2022-11-14T10:46:58.812Z,86.24
2022-11-14T10:49:00.912Z,86.75
2022-11-14T10:51:10.796Z,86.46
2022-11-14T10:53:23.805Z,86.67
2022-11-14T10:55:49.707Z,86.60
2022-11-14T10:57:46.690Z,86.76
2022-11-14T10:59:49.039Z,86.67
2022-11-14T11:01:50.472Z,87.21
2022-11-14T11:03:51.976Z,87.55
2022-11-14T11:05:57.461Z,87.04
2022-11-14T11:08:42.504Z,87.47
2022-11-14T11:11:02.127Z,87.54
2022-11-14T11:13:03.670Z,86.76
2022-11-14T11:15:20.410Z,86.30
2022-11-14T11:17:23.098Z,87.01
2022-11-14T11:19:27.142Z,87.09
2022-11-14T11:21:48.486Z,85.96
2022-11-14T11:23:55.771Z,86.26
2022-11-14T11:26:15.794Z,86.51
2022-11-14T11:28:20.122Z,86.36
2022-11-14T11:30:23.360Z,86.60
2022-11-14T11:32:26.245Z,86.66
2022-11-14T11:34:30.999Z,86.08
2022-11-14T11:36:40.791Z,85.68
2022-11-14T11:38:42.388Z,85.42
2022-11-14T11:40:46.575Z,86.09
2022-11-14T11:45:19.555Z,85.66
2022-11-14T11:47:21.795Z,85.42
2022-11-14T11:49:53.362Z,85.28
2022-11-14T11:51:58.128Z,85.10
2022-11-14T11:54:27.292Z,84.12
2022-11-14T11:56:31.849Z,84.21
2022-11-14T11:58:42.834Z,84.59
2022-11-14T12:00:44.327Z,84.86
2022-11-14T12:02:50.040Z,84.54
2022-11-14T12:04:54.491Z,85.08
2022-11-14T12:07:14.742Z,84.62
2022-11-14T12:09:48.734Z,85.44
2022-11-14T12:11:55.627Z,85.31
2022-11-14T12:14:28.191Z,85.05
2022-11-14T12:16:45.627Z,85.35
2022-11-14T12:19:20.861Z,84.71
2022-11-14T12:21:54.236Z,85.34
2022-11-14T12:23:58.868Z,85.35
2022-11-14T12:26:18.726Z,85.49
2022-11-14T12:29:01.885Z,84.98
2022-11-14T12:31:10.963Z,85.10
2022-11-14T12:33:22.003Z,84.93
2022-11-14T12:35:26.534Z,85.04
2022-11-14T12:37:38.258Z,84.89
2022-11-14T12:39:39.784Z,84.86
2022-11-14T12:41:42.073Z,84.63
2022-11-14T12:43:44.216Z,84.58
2022-11-14T12:45:51.932Z,85.59
2022-11-14T12:48:29.125Z,85.30
2022-11-14T12:50:42.047Z,84.88
2022-11-14T12:52:46.300Z,85.29
2022-11-14T12:54:49.175Z,84.98
2022-11-14T12:56:59.607Z,84.91
2022-11-14T12:59:22.326Z,84.90
2022-11-14T13:01:36.777Z,85.29
2022-11-14T13:03:50.290Z,85.71
2022-11-14T13:06:03.758Z,86.10
2022-11-14T13:08:24.276Z,85.91
2022-11-14T13:10:31.985Z,85.88
2022-11-14T13:12:53.272Z,85.57
2022-11-14T13:15:16.064Z,85.45
2022-11-14T13:17:35.934Z,86.10
2022-11-14T13:20:05.445Z,85.69
2022-11-14T13:22:13.024Z,84.92
2022-11-14T13:24:19.086Z,84.73
2022-11-14T13:26:20.447Z,84.43
2022-11-14T13:28:37.342Z,83.57
2022-11-14T13:31:15.869Z,84.25
2022-11-14T13:33:36.064Z,83.81
2022-11-14T13:35:44.713Z,83.61
2022-11-14T13:38:10.156Z,84.26
2022-11-14T13:40:28.455Z,83.98
2022-11-14T13:42:59.289Z,84.24
2022-11-14T13:45:19.399Z,84.92
2022-11-14T13:47:51.847Z,83.84
2022-11-14T13:50:09.157Z,83.97
2022-11-14T13:52:12.918Z,84.53
2022-11-14T13:54:18.607Z,84.76
2022-11-14T13:56:38.290Z,84.61
2022-11-14T13:59:21.409Z,84.31
2022-11-14T14:01:31.521Z,84.27
2022-11-14T14:03:48.257Z,84.30
2022-11-14T14:06:20.100Z,84.71
2022-11-14T14:08:34.211Z,84.43
2022-11-14T14:10:42.668Z,84.11
2022-11-14T14:12:44.049Z,84.89
2022-11-14T14:15:04.544Z,85.08
2022-11-14T14:17:20.504Z,84.93
2022-11-14T14:20:01.539Z,85.30
2022-11-14T14:22:20.306Z,84.73
2022-11-14T14:24:40.094Z,84.33
2022-11-14T14:26:59.326Z,84.15
2022-11-14T14:29:18.509Z,84.04
2022-11-14T14:31:20.664Z,83.67
2022-11-14T14:33:22.268Z,83.68
2022-11-14T14:35:28.179Z,83.94
2022-11-14T14:37:29.814Z,83.76
2022-11-14T14:39:31.274Z,84.45
2022-11-14T14:41:33.337Z,84.64
2022-11-14T14:43:35.140Z,84.58
2022-11-14T14:45:54.699Z,84.38
2022-11-14T14:48:21.803Z,84.31
2022-11-14T14:50:26.898Z,84.75
2022-11-14T14:52:29.735Z,85.26
2022-11-14T14:54:31.258Z,85.33
2022-11-14T14:56:32.881Z,85.50
2022-11-14T14:58:35.513Z,84.56
2022-11-14T15:00:37.321Z,84.74
2022-11-14T15:02:38.798Z,85.25
2022-11-14T15:04:40.972Z,84.56
2022-11-14T15:06:46.423Z,85.45
2022-11-14T15:08:49.062Z,84.99
2022-11-14T15:10:51.449Z,84.58
2022-11-14T15:12:53.612Z,85.47
2022-11-14T15:14:56.582Z,85.88
2022-11-14T15:16:59.340Z,85.57
2022-11-14T15:19:00.989Z,84.92
2022-11-14T15:21:22.969Z,85.49
2022-11-14T15:23:24.439Z,85.37
2022-11-14T15:25:26.006Z,85.93
2022-11-14T15:27:27.458Z,86.21
2022-11-14T15:29:31.559Z,85.52
2022-11-14T15:31:35.410Z,85.23
2022-11-14T15:33:36.988Z,85.51
2022-11-14T15:35:40.038Z,85.72
2022-11-14T15:38:15.648Z,85.46
2022-11-14T15:40:22.124Z,85.42
2022-11-14T15:42:23.512Z,85.63
2022-11-14T15:44:31.857Z,85.82
2022-11-14T15:46:33.247Z,86.24
2022-11-14T15:48:34.740Z,85.94
2022-11-14T15:50:36.259Z,86.41
2022-11-14T15:52:46.792Z,86.17
2022-11-14T15:54:48.290Z,86.26
2022-11-14T15:56:50.567Z,86.30
2022-11-14T15:58:52.347Z,86.59
2022-11-14T16:00:55.043Z,86.42
2022-11-14T16:02:57.669Z,86.03
2022-11-14T16:05:00.305Z,85.97
2022-11-14T16:07:02.198Z,86.13
2022-11-14T16:09:04.013Z,86.63
2022-11-14T16:11:05.570Z,85.70
2022-11-14T16:13:07.038Z,85.24
2022-11-14T16:15:08.899Z,85.72
2022-11-14T16:17:15.274Z,85.34
2022-11-14T16:19:17.156Z,85.99
2022-11-14T16:21:18.663Z,85.41
2022-11-14T16:23:20.080Z,86.08
2022-11-14T16:25:26.941Z,86.23
2022-11-14T16:27:28.413Z,86.06
2022-11-14T16:29:29.869Z,85.92
2022-11-14T16:31:31.328Z,85.56
2022-11-14T16:33:33.227Z,86.04
2022-11-14T16:35:34.904Z,86.68
2022-11-14T16:37:36.449Z,86.33
2022-11-14T16:39:38.576Z,85.97
2022-11-14T16:41:40.841Z,85.90
2022-11-14T16:43:42.280Z,86.16
2022-11-14T16:45:43.716Z,86.10
2022-11-14T16:47:45.137Z,85.92
2022-11-14T16:49:46.578Z,85.86
2022-11-14T16:51:52.122Z,86.36
2022-11-14T16:53:56.854Z,86.89
2022-11-14T16:55:58.351Z,86.53
2022-11-14T16:58:00.088Z,86.52
2022-11-14T17:00:03.873Z,86.75
2022-11-14T17:02:05.552Z,87.22
2022-11-14T17:04:07.210Z,86.88
2022-11-14T17:06:10.380Z,86.84
2022-11-14T17:08:11.891Z,86.22
2022-11-14T17:10:13.325Z,86.27
2022-11-14T17:12:14.799Z,86.34
2022-11-14T17:14:16.281Z,86.63
2022-11-14T17:16:18.302Z,87.06
2022-11-14T17:18:19.771Z,86.94
2022-11-14T17:20:21.195Z,86.88
2022-11-14T17:22:22.774Z,86.88
2022-11-14T17:24:28.622Z,86.11
2022-11-14T17:26:32.691Z,85.76
2022-11-14T17:28:34.553Z,86.21
2022-11-14T17:30:41.156Z,85.91
2022-11-14T17:32:42.902Z,86.14
2022-11-14T17:34:44.425Z,86.41
2022-11-14T17:36:45.946Z,86.62
2022-11-14T17:38:47.489Z,86.60
2022-11-14T17:40:48.935Z,86.52
2022-11-14T17:42:52.265Z,86.53
2022-11-14T17:44:53.672Z,86.27
2022-11-14T17:46:55.091Z,86.15
2022-11-14T17:48:58.602Z,86.00
2022-11-14T17:51:10.291Z,85.90
2022-11-14T17:53:11.741Z,86.31
2022-11-14T17:55:13.403Z,85.99
2022-11-14T17:57:14.907Z,85.95
2022-11-14T17:59:16.364Z,86.12
2022-11-14T18:01:20.566Z,86.89
2022-11-14T18:03:22.033Z,86.76
2022-11-14T18:05:23.812Z,86.70
2022-11-14T18:07:25.576Z,86.50
2022-11-14T18:09:29.409Z,86.72
2022-11-14T18:11:31.361Z,86.91
2022-11-14T18:13:33.336Z,86.58
2022-11-14T18:15:36.916Z,86.12
2022-11-14T18:17:38.332Z,86.41
2022-11-14T18:19:39.861Z,86.52
2022-11-14T18:21:43.203Z,86.58
2022-11-14T18:23:57.295Z,86.68
2022-11-14T18:25:58.756Z,87.34
2022-11-14T18:28:00.173Z,87.13
2022-11-14T18:30:19.833Z,86.85
2022-11-14T18:32:23.021Z,87.37
2022-11-14T18:34:24.453Z,86.59
2022-11-14T18:36:25.883Z,86.53
2022-11-14T18:38:30.866Z,86.18
2022-11-14T18:40:32.522Z,86.70
2022-11-14T18:42:33.965Z,87.30
2022-11-14T18:44:35.502Z,87.29
2022-11-14T18:46:37.730Z,86.53
2022-11-14T18:48:40.628Z,86.68
2022-11-14T18:50:42.072Z,86.43
2022-11-14T18:52:43.463Z,86.52
2022-11-14T18:54:44.873Z,86.78
2022-11-14T18:56:46.465Z,87.11
2022-11-14T18:58:52.836Z,87.33
2022-11-14T19:00:54.348Z,86.69
2022-11-14T19:02:55.812Z,86.16
2022-11-14T19:04:57.239Z,86.41
2022-11-14T19:06:58.811Z,86.23
2022-11-14T19:09:08.131Z,86.73
2022-11-14T19:11:33.487Z,86.66
2022-11-14T19:13:35.259Z,86.11
2022-11-14T19:15:36.778Z,86.16
2022-11-14T19:17:38.243Z,87.28
2022-11-14T19:19:39.756Z,87.20
2022-11-14T19:21:41.517Z,87.03
2022-11-14T19:23:42.977Z,86.80
2022-11-14T19:25:44.481Z,86.71
2022-11-14T19:27:50.532Z,86.60
2022-11-14T19:29:51.969Z,86.64
2022-11-14T19:31:54.585Z,87.03
2022-11-14T19:33:56.067Z,86.93
2022-11-14T19:35:58.033Z,88.37
2022-11-14T19:37:59.572Z,89.09
2022-11-14T19:40:01.080Z,89.24
2022-11-14T19:42:02.547Z,89.16
2022-11-14T19:44:04.254Z,89.53
2022-11-14T19:46:07.272Z,89.63
2022-11-14T19:48:08.775Z,89.59
2022-11-14T19:50:11.005Z,89.86
2022-11-14T19:52:13.980Z,90.36
2022-11-14T19:54:15.697Z,89.45
2022-11-14T19:56:18.191Z,89.64
2022-11-14T19:58:19.705Z,90.00
2022-11-14T20:00:24.829Z,90.70
2022-11-14T20:02:28.476Z,89.70
2022-11-14T20:04:32.301Z,90.26
2022-11-14T20:06:37.036Z,89.83
2022-11-14T20:08:38.520Z,89.42
2022-11-14T20:10:47.629Z,89.53
2022-11-14T20:12:49.452Z,88.48
2022-11-14T20:14:51.202Z,88.45
2022-11-14T20:16:52.650Z,88.79
2022-11-14T20:18:59.005Z,89.48
2022-11-14T20:21:05.281Z,88.96
2022-11-14T20:23:06.763Z,89.47
2022-11-14T20:25:08.791Z,89.02
2022-11-14T20:27:10.357Z,89.31
2022-11-14T20:29:11.867Z,89.29
2022-11-14T20:31:15.834Z,89.28
2022-11-14T20:33:18.045Z,89.08
2022-11-14T20:35:19.524Z,89.35
2022-11-14T20:37:21.040Z,88.51
2022-11-14T20:39:22.736Z,88.50
2022-11-14T20:41:25.098Z,88.68
2022-11-14T20:43:28.312Z,89.14
2022-11-14T20:45:30.042Z,89.21
2022-11-14T20:47:31.583Z,89.13
2022-11-14T20:49:33.084Z,89.36
2022-11-14T20:51:36.574Z,89.51
2022-11-14T20:53:38.782Z,89.73
2022-11-14T20:55:41.408Z,89.85
2022-11-14T20:57:42.900Z,90.04
2022-11-14T20:59:44.494Z,90.91
2022-11-14T21:01:46.018Z,90.59
2022-11-14T21:03:48.551Z,90.62
2022-11-14T21:05:50.032Z,90.67
2022-11-14T21:07:51.549Z,91.02
2022-11-14T21:10:13.228Z,91.60
2022-11-14T21:12:14.926Z,91.37
2022-11-14T21:14:16.365Z,91.85
2022-11-14T21:16:21.867Z,91.69
2022-11-14T21:18:23.658Z,91.21
2022-11-14T21:20:25.424Z,91.42
2022-11-14T21:22:26.833Z,91.70
2022-11-14T21:24:28.588Z,91.83
2022-11-14T21:26:36.239Z,92.68
2022-11-14T21:28:41.048Z,92.61
2022-11-14T21:30:42.484Z,92.95
2022-11-14T21:32:43.963Z,92.83
2022-11-14T21:34:45.394Z,93.25
2022-11-14T21:36:48.220Z,93.59
2022-11-14T21:38:49.739Z,93.97
2022-11-14T21:40:55.215Z,94.35
2022-11-14T21:42:56.633Z,93.88
2022-11-14T21:44:58.111Z,93.73
2022-11-14T21:46:59.738Z,93.66
2022-11-14T21:49:01.170Z,93.57
2022-11-14T21:51:14.671Z,93.37
2022-11-14T21:53:16.485Z,93.39
2022-11-14T21:55:17.965Z,92.81
2022-11-14T21:57:19.387Z,92.38
2022-11-14T21:59:25.641Z,92.36
2022-11-14T22:01:45.445Z,91.47
2022-11-14T22:04:05.336Z,91.59
2022-11-14T22:06:06.806Z,92.31
2022-11-14T22:08:08.218Z,92.31
2022-11-14T22:10:09.856Z,92.29
2022-11-14T22:12:11.343Z,93.26
2022-11-14T22:14:12.827Z,93.28
2022-11-14T22:16:17.704Z,93.06
2022-11-14T22:18:19.121Z,93.25
2022-11-14T22:20:20.551Z,93.60
2022-11-14T22:22:21.963Z,93.64
2022-11-14T22:24:23.739Z,93.92
2022-11-14T22:26:25.263Z,93.93
2022-11-14T22:28:28.426Z,93.63
2022-11-14T22:30:29.936Z,93.74
2022-11-14T22:32:32.140Z,94.03
2022-11-14T22:34:33.550Z,93.97
2022-11-14T22:36:35.517Z,93.94
2022-11-14T22:38:37.967Z,94.08
2022-11-14T22:40:39.514Z,94.43
2022-11-14T22:42:40.969Z,94.05
2022-11-14T22:44:42.386Z,94.12
2022-11-14T22:46:43.807Z,94.08
2022-11-14T22:48:46.482Z,93.97
2022-11-14T22:50:48.189Z,94.16
2022-11-14T22:52:49.609Z,94.24
2022-11-14T22:54:51.008Z,94.38
2022-11-14T22:56:52.448Z,95.18
2022-11-14T22:58:54.816Z,94.30
2022-11-14T23:00:56.243Z,94.02
2022-11-14T23:03:20.388Z,94.57
2022-11-14T23:05:22.169Z,94.96
2022-11-14T23:07:23.644Z,94.57
2022-11-14T23:09:25.153Z,94.71
2022-11-14T23:11:29.071Z,94.89
2022-11-14T23:13:31.137Z,94.74
2022-11-14T23:15:32.970Z,94.41
2022-11-14T23:17:34.388Z,94.51
2022-11-14T23:19:35.827Z,94.70
2022-11-14T23:21:37.288Z,95.00
2022-11-14T23:23:38.774Z,94.79
2022-11-14T23:25:40.221Z,95.13
2022-11-14T23:27:41.647Z,94.64
2022-11-14T23:29:43.093Z,94.70
2022-11-14T23:31:44.515Z,95.10
2022-11-14T23:33:51.345Z,95.09
2022-11-14T23:35:52.809Z,95.04
2022-11-14T23:37:54.219Z,95.32
2022-11-14T23:39:55.634Z,95.35
2022-11-14T23:41:57.076Z,95.56
2022-11-14T23:43:58.557Z,95.80
2022-11-14T23:45:59.982Z,95.56
2022-11-14T23:48:01.469Z,95.56
2022-11-14T23:50:02.991Z,95.50
2022-11-14T23:52:04.600Z,95.52
2022-11-14T23:54:06.058Z,95.56
2022-11-14T23:56:11.788Z,95.75
2022-11-14T23:58:13.213Z,96.04
